Time;durP1;ratioP1;P1;durP2;ratioP2;P2;SDS_P1;SDS_P2;PMS_P1;PMS_P2;Temp;Humidity;BMP_temperature;BMP_pressure;BME280_temperature;BME280_humidity;BME280_pressure;Samples;Min_cycle;Max_cycle;Signal;HPM_P1;HPM_P2
2022/09/21 00:03:02;;;;;;;4.82;2.10;;;;;;;;;;6325313;28;20052;-75
2022/09/21 00:06:04;;;;;;;8.15;2.25;;;;;;;;;;6323172;28;20048;-74
2022/09/21 00:09:08;;;;;;;6.47;2.03;;;;;;;;;;6320204;28;20106;-75
2022/09/21 00:12:09;;;;;;;4.95;2.00;;;;;;;;;;6322161;28;20236;-75
2022/09/21 00:15:11;;;;;;;4.07;1.90;;;;;;;;;;6326692;28;20055;-75
2022/09/21 00:18:14;;;;;;;6.05;2.17;;;;;;;;;;6323675;28;20055;-75
2022/09/21 00:21:17;;;;;;;5.35;2.13;;;;;;;;;;6320437;28;20067;-73
2022/09/21 00:24:18;;;;;;;4.70;2.28;;;;;;;;;;6321515;28;20071;-75
2022/09/21 00:27:20;;;;;;;4.63;2.20;;;;;;;;;;6323938;28;20051;-74
2022/09/21 00:30:22;;;;;;;5.45;2.13;;;;;;;;;;6322572;28;20054;-75
2022/09/21 00:33:25;;;;;;;7.75;1.95;;;;;;;;;;6319879;28;20116;-74
2022/09/21 00:36:27;;;;;;;3.13;1.65;;;;;;;;;;6319887;28;20346;-74
2022/09/21 00:39:29;;;;;;;4.35;1.80;;;;;;;;;;6321758;28;20059;-76
2022/09/21 00:42:33;;;;;;;4.38;1.90;;;;;;;;;;6327638;28;20051;-75
2022/09/21 00:45:35;;;;;;;2.78;1.50;;;;;;;;;;6322698;28;20064;-75
2022/09/21 00:48:38;;;;;;;5.10;1.73;;;;;;;;;;6322612;28;20048;-75
2022/09/21 00:51:40;;;;;;;4.60;1.50;;;;;;;;;;6318679;28;20052;-77
2022/09/21 00:54:44;;;;;;;3.35;1.92;;;;;;;;;;6323376;28;20236;-79
2022/09/21 00:57:46;;;;;;;6.25;2.30;;;;;;;;;;6323768;28;20303;-75
2022/09/21 01:00:48;;;;;;;3.80;1.83;;;;;;;;;;6319131;28;20044;-75
2022/09/21 01:03:52;;;;;;;4.45;1.98;;;;;;;;;;6324828;28;20052;-76
2022/09/21 01:06:54;;;;;;;3.35;1.83;;;;;;;;;;6323110;28;20090;-75
2022/09/21 01:09:58;;;;;;;4.68;2.00;;;;;;;;;;6321350;28;20051;-74
2022/09/21 01:13:06;;;;;;;6.72;2.33;;;;;;;;;;6320387;28;20056;-75
2022/09/21 01:16:30;;;;;;;3.83;1.45;;;;;;;;;;6319030;28;20356;-75
2022/09/21 01:19:53;;;;;;;5.22;1.83;;;;;;;;;;6312490;28;20115;-75
2022/09/21 01:23:07;;;;;;;3.97;1.50;;;;;;;;;;6319555;28;20090;-75
2022/09/21 01:26:16;;;;;;;5.55;1.52;;;;;;;;;;6319125;28;20044;-75
2022/09/21 01:29:23;;;;;;;4.03;1.55;;;;;;;;;;6320788;28;20069;-75
2022/09/21 01:32:27;;;;;;;2.40;1.15;;;;;;;;;;6320902;28;20341;-75
2022/09/21 01:35:32;;;;;;;3.33;1.30;;;;;;;;;;6317950;28;20110;-75
2022/09/21 01:38:38;;;;;;;5.63;2.05;;;;;;;;;;6316666;27;20051;-75
2022/09/21 01:41:40;;;;;;;4.53;1.13;;;;;;;;;;6316016;28;20044;-75
2022/09/21 01:44:44;;;;;;;3.53;1.67;;;;;;;;;;6318341;28;20366;-75
2022/09/21 01:47:47;;;;;;;2.95;1.48;;;;;;;;;;6318289;28;20141;-76
2022/09/21 01:50:52;;;;;;;2.72;1.20;;;;;;;;;;6319232;28;20090;-76
2022/09/21 01:53:57;;;;;;;3.20;1.27;;;;;;;;;;6316399;28;20142;-75
2022/09/21 01:57:02;;;;;;;4.70;1.42;;;;;;;;;;6323164;28;20055;-75
2022/09/21 02:00:07;;;;;;;2.85;1.20;;;;;;;;;;6316045;28;20113;-74
2022/09/21 02:03:13;;;;;;;8.90;1.77;;;;;;;;;;6318186;28;20231;-76
2022/09/21 02:06:17;;;;;;;2.10;1.10;;;;;;;;;;6317931;28;20231;-74
2022/09/21 02:09:19;;;;;;;2.92;1.20;;;;;;;;;;6317505;28;20071;-76
2022/09/21 02:12:21;;;;;;;2.08;1.08;;;;;;;;;;6314511;28;20097;-74
2022/09/21 02:15:33;;;;;;;2.10;0.90;;;;;;;;;;6315764;28;20355;-74
2022/09/21 02:18:41;;;;;;;2.10;1.13;;;;;;;;;;6315189;28;20101;-75
2022/09/21 02:21:52;;;;;;;2.75;1.10;;;;;;;;;;6320287;28;20089;-75
2022/09/21 02:24:57;;;;;;;2.05;0.98;;;;;;;;;;6316540;28;20396;-76
2022/09/21 02:28:03;;;;;;;3.30;1.00;;;;;;;;;;6315879;28;20205;-75
2022/09/21 02:31:12;;;;;;;1.38;1.00;;;;;;;;;;6315417;28;20051;-75
2022/09/21 02:34:19;;;;;;;4.03;1.00;;;;;;;;;;6312894;28;20968;-74
2022/09/21 02:37:24;;;;;;;1.63;0.80;;;;;;;;;;6311389;28;20052;-76
2022/09/21 02:40:30;;;;;;;4.03;0.98;;;;;;;;;;6313449;27;20051;-75
2022/09/21 02:43:34;;;;;;;2.22;0.93;;;;;;;;;;6315699;28;20048;-75
2022/09/21 02:46:37;;;;;;;;;;;;;;;;;;6318357;28;20205;-74
2022/09/21 02:49:42;;;;;;;3.90;1.00;;;;;;;;;;6313168;28;19931;-75
2022/09/21 02:52:44;;;;;;;4.65;1.60;;;;;;;;;;6315650;28;20118;-76
2022/09/21 02:55:48;;;;;;;2.00;1.10;;;;;;;;;;6321331;28;20349;-75
2022/09/21 02:58:53;;;;;;;2.63;1.13;;;;;;;;;;6321947;28;20052;-75
2022/09/21 03:01:56;;;;;;;2.85;1.50;;;;;;;;;;6323322;28;20044;-74
2022/09/21 03:04:57;;;;;;;2.95;0.70;;;;;;;;;;6326058;28;20108;-74
2022/09/21 03:07:59;;;;;;;2.97;1.30;;;;;;;;;;6325709;28;20055;-75
2022/09/21 03:11:01;;;;;;;3.58;0.77;;;;;;;;;;6324951;28;20055;-74
2022/09/21 03:14:06;;;;;;;3.15;0.82;;;;;;;;;;6317631;28;20071;-75
2022/09/21 03:17:09;;;;;;;4.30;1.00;;;;;;;;;;6320766;28;20056;-74
2022/09/21 03:20:10;;;;;;;2.05;1.00;;;;;;;;;;6321133;28;20910;-74
2022/09/21 03:23:12;;;;;;;2.85;0.95;;;;;;;;;;6320682;28;20064;-75
2022/09/21 03:26:14;;;;;;;4.97;1.10;;;;;;;;;;6321823;28;20076;-74
2022/09/21 03:29:17;;;;;;;1.88;1.00;;;;;;;;;;6318429;28;20052;-75
2022/09/21 03:32:20;;;;;;;5.03;1.13;;;;;;;;;;6322184;28;20047;-75
2022/09/21 03:35:24;;;;;;;2.25;1.08;;;;;;;;;;6318855;28;20045;-75
2022/09/21 03:38:26;;;;;;;2.78;1.30;;;;;;;;;;6322440;28;20119;-75
2022/09/21 03:41:27;;;;;;;3.38;0.98;;;;;;;;;;6323358;28;20051;-74
2022/09/21 03:44:29;;;;;;;1.73;0.95;;;;;;;;;;6318438;28;20086;-75
2022/09/21 03:47:32;;;;;;;5.45;1.08;;;;;;;;;;6322441;28;20044;-75
2022/09/21 03:50:33;;;;;;;2.17;1.10;;;;;;;;;;6319391;27;20051;-74
2022/09/21 03:53:35;;;;;;;4.32;0.88;;;;;;;;;;6317175;28;20401;-75
2022/09/21 03:56:37;;;;;;;2.85;0.90;;;;;;;;;;6317896;28;20351;-74
2022/09/21 03:59:38;;;;;;;6.20;1.35;;;;;;;;;;6316869;28;20052;-75
2022/09/21 04:02:42;;;;;;;5.95;0.93;;;;;;;;;;6321258;28;20074;-74
2022/09/21 04:05:43;;;;;;;8.68;1.45;;;;;;;;;;6317614;28;20089;-75
2022/09/21 04:08:45;;;;;;;4.13;1.13;;;;;;;;;;6319261;28;20221;-74
2022/09/21 04:11:47;;;;;;;3.05;1.00;;;;;;;;;;6315761;28;20052;-75
2022/09/21 04:14:49;;;;;;;2.88;1.20;;;;;;;;;;6318328;28;20048;-77
2022/09/21 04:17:52;;;;;;;3.55;1.60;;;;;;;;;;6319194;28;20102;-75
2022/09/21 04:20:54;;;;;;;5.25;1.13;;;;;;;;;;6318702;28;20044;-75
2022/09/21 04:23:56;;;;;;;2.65;1.27;;;;;;;;;;6320504;28;20048;-75
2022/09/21 04:26:57;;;;;;;5.15;1.13;;;;;;;;;;6320042;28;20059;-75
2022/09/21 04:29:59;;;;;;;2.70;0.98;;;;;;;;;;6319238;27;20330;-75
2022/09/21 04:33:02;;;;;;;3.75;1.15;;;;;;;;;;6318737;28;20328;-74
2022/09/21 04:36:05;;;;;;;2.03;0.83;;;;;;;;;;6316402;28;20058;-76
2022/09/21 04:39:07;;;;;;;5.47;1.40;;;;;;;;;;6316058;28;20665;-77
2022/09/21 04:42:09;;;;;;;2.83;1.63;;;;;;;;;;6317964;28;20048;-77
2022/09/21 04:45:11;;;;;;;11.32;2.30;;;;;;;;;;6319572;28;20089;-74
2022/09/21 04:48:14;;;;;;;3.47;1.90;;;;;;;;;;6317593;28;20063;-75
2022/09/21 04:51:16;;;;;;;4.35;1.77;;;;;;;;;;6316071;28;20056;-75
2022/09/21 04:54:18;;;;;;;7.78;2.35;;;;;;;;;;6319625;28;20063;-76
2022/09/21 04:57:20;;;;;;;5.43;2.20;;;;;;;;;;6318517;28;20141;-77
2022/09/21 05:00:22;;;;;;;13.18;2.55;;;;;;;;;;6317288;28;20093;-76
2022/09/21 05:03:26;;;;;;;5.07;2.15;;;;;;;;;;6323031;28;20056;-81
2022/09/21 05:06:28;;;;;;;5.50;2.10;;;;;;;;;;6317337;28;20059;-71
2022/09/21 05:12:48;;;;;;;6.60;2.28;;;;;;;;;;6320037;28;20040;-75
2022/09/21 05:15:50;;;;;;;3.53;2.08;;;;;;;;;;6316848;28;20071;-72
2022/09/21 05:18:54;;;;;;;4.85;2.00;;;;;;;;;;6317230;28;20067;-78
2022/09/21 05:21:56;;;;;;;3.47;1.60;;;;;;;;;;6319207;28;20090;-72
2022/09/21 05:24:58;;;;;;;5.68;2.08;;;;;;;;;;6318949;28;20052;-74
2022/09/21 05:28:00;;;;;;;3.63;2.22;;;;;;;;;;6320413;28;20068;-75
2022/09/21 05:31:05;;;;;;;3.60;1.80;;;;;;;;;;6317523;28;20056;-74
2022/09/21 05:34:17;;;;;;;4.57;2.00;;;;;;;;;;6315929;28;20056;-74
2022/09/21 05:37:40;;;;;;;4.55;1.83;;;;;;;;;;6320680;28;20235;-80
2022/09/21 05:40:42;;;;;;;4.53;1.90;;;;;;;;;;6316290;28;20048;-75
2022/09/21 05:43:44;;;;;;;6.35;1.65;;;;;;;;;;6317121;28;20043;-73
2022/09/21 05:46:49;;;;;;;2.20;1.52;;;;;;;;;;6315443;28;20064;-74
2022/09/21 05:49:59;;;;;;;5.70;1.77;;;;;;;;;;6315982;28;20254;-79
2022/09/21 05:53:10;;;;;;;6.00;2.00;;;;;;;;;;6316181;28;20040;-74
2022/09/21 05:56:21;;;;;;;2.75;1.52;;;;;;;;;;6315461;28;20236;-73
2022/09/21 05:59:47;;;;;;;3.17;1.98;;;;;;;;;;6319972;28;20044;-80
2022/09/21 06:03:01;;;;;;;3.92;1.77;;;;;;;;;;6319170;28;20117;-73
2022/09/21 06:06:04;;;;;;;7.57;1.80;;;;;;;;;;6318316;28;20048;-75
2022/09/21 06:09:06;;;;;;;5.47;2.10;;;;;;;;;;6315346;28;20060;-75
2022/09/21 06:12:10;;;;;;;4.93;2.45;;;;;;;;;;6317690;27;20106;-71
2022/09/21 06:15:14;;;;;;;5.10;1.98;;;;;;;;;;6313978;28;20052;-80
2022/09/21 06:18:15;;;;;;;4.68;2.00;;;;;;;;;;6319203;28;20232;-72
2022/09/21 06:21:18;;;;;;;4.65;1.90;;;;;;;;;;6321011;28;20080;-74
2022/09/21 06:24:20;;;;;;;5.33;1.67;;;;;;;;;;6317083;28;20046;-71
2022/09/21 06:27:21;;;;;;;4.88;1.60;;;;;;;;;;6321094;28;20044;-73
2022/09/21 06:30:23;;;;;;;5.00;1.33;;;;;;;;;;6316469;28;20056;-73
2022/09/21 06:33:25;;;;;;;2.70;1.20;;;;;;;;;;6318899;28;20323;-74
2022/09/21 06:36:28;;;;;;;2.65;1.20;;;;;;;;;;6320014;28;20048;-74
2022/09/21 06:39:30;;;;;;;2.20;1.40;;;;;;;;;;6316415;28;20343;-74
2022/09/21 06:42:31;;;;;;;4.35;1.42;;;;;;;;;;6318633;28;20311;-72
2022/09/21 06:45:33;;;;;;;5.22;1.45;;;;;;;;;;6317502;28;20728;-72
2022/09/21 06:48:35;;;;;;;4.13;1.20;;;;;;;;;;6317533;28;20048;-82
2022/09/21 06:51:38;;;;;;;7.13;1.20;;;;;;;;;;6315783;28;20044;-73
2022/09/21 06:54:41;;;;;;;3.60;0.93;;;;;;;;;;6313451;28;20047;-84
2022/09/21 06:57:42;;;;;;;1.57;0.80;;;;;;;;;;6318332;28;20070;-74
2022/09/21 07:00:44;;;;;;;1.35;0.95;;;;;;;;;;6317007;28;20362;-73
2022/09/21 07:03:49;;;;;;;2.25;0.90;;;;;;;;;;6315922;28;20044;-70
2022/09/21 07:06:52;;;;;;;3.15;1.70;;;;;;;;;;6317362;28;20048;-72
2022/09/21 07:09:54;;;;;;;3.73;1.30;;;;;;;;;;6313666;28;20081;-72
2022/09/21 07:12:55;;;;;;;3.13;1.05;;;;;;;;;;6318332;28;20051;-74
2022/09/21 07:15:57;;;;;;;3.13;1.23;;;;;;;;;;6315367;28;20208;-72
2022/09/21 07:18:59;;;;;;;6.30;1.60;;;;;;;;;;6323401;27;20066;-74
2022/09/21 07:22:02;;;;;;;5.38;0.98;;;;;;;;;;6317476;28;20056;-75
2022/09/21 07:25:05;;;;;;;1.92;0.82;;;;;;;;;;6319037;28;20105;-71
2022/09/21 07:28:07;;;;;;;0.93;0.80;;;;;;;;;;6320403;28;20109;-71
2022/09/21 07:31:12;;;;;;;3.25;0.95;;;;;;;;;;6316637;28;20458;-71
2022/09/21 07:34:14;;;;;;;3.22;1.10;;;;;;;;;;6316232;28;20048;-76
2022/09/21 07:37:17;;;;;;;14.85;2.53;;;;;;;;;;6316355;28;20283;-76
2022/09/21 07:40:18;;;;;;;1.50;0.80;;;;;;;;;;6317648;28;20219;-72
2022/09/21 07:43:20;;;;;;;2.85;0.90;;;;;;;;;;6321037;28;20064;-74
2022/09/21 07:46:22;;;;;;;2.55;1.27;;;;;;;;;;6320211;28;20056;-71
2022/09/21 07:49:23;;;;;;;4.38;0.90;;;;;;;;;;6320990;28;20062;-72
2022/09/21 07:52:27;;;;;;;9.10;1.80;;;;;;;;;;6319366;28;20117;-71
2022/09/21 07:55:29;;;;;;;3.30;1.00;;;;;;;;;;6319657;28;20239;-77
2022/09/21 08:02:05;;;;;;;4.65;1.08;;;;;;;;;;6220583;28;20077;-71
2022/09/21 08:05:07;;;;;;;12.80;1.33;;;;;;;;;;6218837;28;20054;-72
2022/09/21 08:08:10;;;;;;;3.58;1.00;;;;;;;;;;6220649;28;20057;-72
2022/09/21 08:11:11;;;;;;;3.25;0.93;;;;;;;;;;6219215;28;20467;-70
2022/09/21 08:14:18;;;;;;;2.35;1.35;;;;;;;;;;6219388;28;20050;-72
2022/09/21 08:17:19;;;;;;;2.72;1.05;;;;;;;;;;6217068;28;20451;-72
2022/09/21 08:20:22;;;;;;;4.57;1.10;;;;;;;;;;6217575;28;20050;-71
2022/09/21 08:23:27;;;;;;;5.15;0.90;;;;;;;;;;6219561;28;20068;-73
2022/09/21 08:26:29;;;;;;;3.33;1.52;;;;;;;;;;6218397;28;20050;-71
2022/09/21 08:29:31;;;;;;;4.43;1.02;;;;;;;;;;6219544;28;20348;-71
2022/09/21 08:32:32;;;;;;;1.30;0.90;;;;;;;;;;6263816;28;20256;-73
2022/09/21 08:35:34;;;;;;;2.42;1.17;;;;;;;;;;6323129;28;20071;-72
2022/09/21 08:38:38;;;;;;;7.95;1.15;;;;;;;;;;6321575;28;20161;-71
2022/09/21 08:41:59;;;;;;;5.50;0.93;;;;;;;;;;6319524;28;20317;-72
2022/09/21 08:45:06;;;;;;;6.88;1.17;;;;;;;;;;6316792;28;20056;-74
2022/09/21 08:48:12;;;;;;;3.47;0.70;;;;;;;;;;6320844;28;20067;-79
2022/09/21 08:51:17;;;;;;;4.63;1.08;;;;;;;;;;6321491;28;20044;-72
2022/09/21 08:54:25;;;;;;;20.65;12.13;;;;;;;;;;6319393;28;21800;-70
2022/09/21 08:57:29;;;;;;;73.20;42.08;;;;;;;;;;6315688;28;20048;-68
2022/09/21 09:00:36;;;;;;;7.80;4.70;;;;;;;;;;6319092;28;20112;-73
2022/09/21 09:04:14;;;;;;;8.48;1.67;;;;;;;;;;6320331;28;20044;-72
2022/09/21 09:07:27;;;;;;;5.85;1.35;;;;;;;;;;6316988;28;20057;-73
2022/09/21 09:10:37;;;;;;;11.10;1.00;;;;;;;;;;6319586;28;20056;-74
2022/09/21 09:13:51;;;;;;;6.38;0.90;;;;;;;;;;6318915;27;20350;-69
2022/09/21 09:17:03;;;;;;;0.70;0.50;;;;;;;;;;6318414;28;20086;-84
2022/09/21 09:20:09;;;;;;;3.25;0.55;;;;;;;;;;6320255;27;20273;-71
2022/09/21 09:23:14;;;;;;;4.85;0.57;;;;;;;;;;6320726;28;20048;-75
2022/09/21 09:26:21;;;;;;;5.13;0.68;;;;;;;;;;6317079;28;20052;-72
2022/09/21 09:29:28;;;;;;;6.85;0.73;;;;;;;;;;6321495;28;20055;-71
2022/09/21 09:32:35;;;;;;;4.93;0.80;;;;;;;;;;6316575;28;20273;-76
2022/09/21 09:35:40;;;;;;;4.15;0.98;;;;;;;;;;6319079;28;20063;-73
2022/09/21 09:38:44;;;;;;;1.85;0.80;;;;;;;;;;6319898;28;20278;-70
2022/09/21 09:42:02;;;;;;;6.18;0.68;;;;;;;;;;6319856;28;20044;-76
2022/09/21 09:45:35;;;;;;;4.45;0.70;;;;;;;;;;6321871;28;20047;-71
2022/09/21 09:48:54;;;;;;;6.40;0.65;;;;;;;;;;6318771;28;20292;-71
2022/09/21 09:51:55;;;;;;;3.97;0.75;;;;;;;;;;6321143;28;20048;-72
2022/09/21 09:54:58;;;;;;;5.43;0.55;;;;;;;;;;6323317;28;20145;-71
2022/09/21 09:58:02;;;;;;;1.15;0.55;;;;;;;;;;6321472;28;20224;-72
2022/09/21 10:01:04;;;;;;;1.38;0.40;;;;;;;;;;6321892;28;20056;-87
2022/09/21 10:04:07;;;;;;;1.27;0.40;;;;;;;;;;6319861;28;20048;-73
2022/09/21 10:07:18;;;;;;;4.45;0.50;;;;;;;;;;6319896;28;20053;-71
2022/09/21 10:10:34;;;;;;;1.52;0.40;;;;;;;;;;6320203;28;20051;-81
2022/09/21 10:13:39;;;;;;;1.35;0.50;;;;;;;;;;6320961;27;20111;-73
2022/09/21 10:16:41;;;;;;;3.50;0.60;;;;;;;;;;6321943;28;20101;-71
2022/09/21 10:19:43;;;;;;;1.58;0.40;;;;;;;;;;6316848;28;20067;-68
2022/09/21 10:22:47;;;;;;;2.05;0.60;;;;;;;;;;6316143;28;20044;-75
2022/09/21 10:25:54;;;;;;;3.75;0.60;;;;;;;;;;6320456;27;20093;-70
2022/09/21 10:28:59;;;;;;;2.53;0.50;;;;;;;;;;6315125;28;20102;-70
2022/09/21 10:32:02;;;;;;;4.38;0.70;;;;;;;;;;6290033;28;20052;-70
2022/09/21 10:35:18;;;;;;;2.67;0.70;;;;;;;;;;6317021;28;20063;-72
2022/09/21 10:38:20;;;;;;;0.93;0.45;;;;;;;;;;6317815;28;20086;-71
2022/09/21 10:41:23;;;;;;;1.40;0.50;;;;;;;;;;6314868;28;21344;-84
2022/09/21 10:44:29;;;;;;;1.05;0.52;;;;;;;;;;6315340;28;20330;-71
2022/09/21 10:47:35;;;;;;;0.93;0.55;;;;;;;;;;6316351;28;20347;-72
2022/09/21 10:50:38;;;;;;;1.42;0.60;;;;;;;;;;6313025;28;20288;-73
2022/09/21 10:53:39;;;;;;;1.42;0.73;;;;;;;;;;6316600;28;20227;-75
2022/09/21 10:56:50;;;;;;;5.22;0.90;;;;;;;;;;6313920;28;20047;-70
2022/09/21 10:59:53;;;;;;;2.63;0.50;;;;;;;;;;6315641;28;20078;-73
2022/09/21 11:02:55;;;;;;;0.98;0.60;;;;;;;;;;6316197;28;20085;-76
2022/09/21 11:06:03;;;;;;;4.60;0.70;;;;;;;;;;6318081;28;20397;-72
2022/09/21 11:09:07;;;;;;;2.03;0.63;;;;;;;;;;6314216;28;20048;-71
2022/09/21 11:12:23;;;;;;;2.08;0.50;;;;;;;;;;6315074;28;20055;-75
2022/09/21 11:15:33;;;;;;;3.67;0.95;;;;;;;;;;6314797;28;20052;-71
2022/09/21 11:18:42;;;;;;;4.45;0.90;;;;;;;;;;6318824;28;20101;-75
2022/09/21 11:21:48;;;;;;;1.17;0.60;;;;;;;;;;6320564;28;20358;-72
2022/09/21 11:24:56;;;;;;;2.47;0.60;;;;;;;;;;6321715;28;20051;-73
2022/09/21 11:28:02;;;;;;;2.78;1.08;;;;;;;;;;6319715;28;20338;-77
2022/09/21 11:31:27;;;;;;;2.72;0.77;;;;;;;;;;6320760;28;20063;-73
2022/09/21 11:34:58;;;;;;;2.95;0.70;;;;;;;;;;6323071;28;20136;-72
2022/09/21 11:38:06;;;;;;;5.15;0.77;;;;;;;;;;6282420;28;20083;-72
2022/09/21 11:41:18;;;;;;;3.60;0.63;;;;;;;;;;6325042;28;20036;-74
2022/09/21 11:44:41;;;;;;;4.10;0.88;;;;;;;;;;6326521;28;20281;-75
2022/09/21 11:47:56;;;;;;;3.00;0.67;;;;;;;;;;6324010;28;20056;-73
2022/09/21 11:51:08;;;;;;;1.48;0.82;;;;;;;;;;6319446;28;20442;-78
2022/09/21 11:54:24;;;;;;;3.30;0.80;;;;;;;;;;6324342;28;20052;-76
2022/09/21 11:57:28;;;;;;;2.10;0.70;;;;;;;;;;6319027;28;20044;-76
2022/09/21 12:00:30;;;;;;;;;;;;;;;;;;6323151;28;20054;-76
2022/09/21 12:03:53;;;;;;;2.17;0.98;;;;;;;;;;6323806;28;19987;-75
2022/09/21 12:07:07;;;;;;;3.13;0.70;;;;;;;;;;6318306;28;20071;-75
2022/09/21 12:10:34;;;;;;;2.45;0.77;;;;;;;;;;6322043;28;20042;-73
2022/09/21 12:13:40;;;;;;;3.17;0.82;;;;;;;;;;6322393;28;20086;-73
2022/09/21 12:16:52;;;;;;;0.75;0.50;;;;;;;;;;6320164;28;20051;-83
2022/09/21 12:20:01;;;;;;;2.53;0.70;;;;;;;;;;6324741;28;20101;-81
2022/09/21 12:23:08;;;;;;;1.73;0.90;;;;;;;;;;6321697;28;20111;-77
2022/09/21 12:26:14;;;;;;;1.65;0.52;;;;;;;;;;6318026;28;20303;-73
2022/09/21 12:29:24;;;;;;;1.20;0.60;;;;;;;;;;6315897;28;20052;-76
2022/09/21 12:32:31;;;;;;;2.95;0.70;;;;;;;;;;6318114;28;20040;-78
2022/09/21 12:35:40;;;;;;;1.67;0.68;;;;;;;;;;6317477;28;20043;-75
2022/09/21 12:38:46;;;;;;;2.10;0.68;;;;;;;;;;6325369;27;20044;-72
2022/09/21 12:41:52;;;;;;;2.63;0.63;;;;;;;;;;6322252;28;20048;-71
2022/09/21 12:44:57;;;;;;;3.75;0.88;;;;;;;;;;6322337;28;20044;-70
2022/09/21 12:48:02;;;;;;;1.95;0.50;;;;;;;;;;6326036;28;20054;-72
2022/09/21 12:51:11;;;;;;;2.15;0.70;;;;;;;;;;6320902;28;20067;-73
2022/09/21 12:54:20;;;;;;;4.07;0.88;;;;;;;;;;6319471;28;20143;-75
2022/09/21 12:57:32;;;;;;;2.55;0.70;;;;;;;;;;6323036;28;20094;-75
2022/09/21 13:00:40;;;;;;;1.20;0.70;;;;;;;;;;6321535;28;20051;-73
2022/09/21 13:03:51;;;;;;;4.90;0.98;;;;;;;;;;6318333;28;20205;-74
2022/09/21 13:07:10;;;;;;;1.35;0.85;;;;;;;;;;6318374;28;20044;-73
2022/09/21 13:10:19;;;;;;;1.95;0.70;;;;;;;;;;6315367;28;20342;-74
2022/09/21 13:13:27;;;;;;;2.55;0.85;;;;;;;;;;6316878;28;20061;-73
2022/09/21 13:16:31;;;;;;;0.82;0.40;;;;;;;;;;6316411;28;20071;-73
2022/09/21 13:19:34;;;;;;;3.00;0.88;;;;;;;;;;6317755;28;20051;-73
2022/09/21 13:22:38;;;;;;;3.50;0.77;;;;;;;;;;6315921;28;20047;-74
2022/09/21 13:25:40;;;;;;;1.42;0.95;;;;;;;;;;6314850;28;20107;-73
2022/09/21 13:29:01;;;;;;;1.45;0.88;;;;;;;;;;6319108;28;20112;-73
2022/09/21 13:32:04;;;;;;;3.20;0.98;;;;;;;;;;6319484;28;20048;-73
2022/09/21 13:35:39;;;;;;;3.50;1.17;;;;;;;;;;6320285;28;20052;-74
2022/09/21 13:39:13;;;;;;;1.52;0.80;;;;;;;;;;6318492;27;20052;-73
2022/09/21 13:42:43;;;;;;;5.15;0.98;;;;;;;;;;6318993;28;20090;-73
2022/09/21 13:45:58;;;;;;;11.82;2.03;;;;;;;;;;6285641;28;20048;-72
2022/09/21 13:49:02;;;;;;;12.27;1.40;;;;;;;;;;6291914;28;20058;-77
2022/09/21 13:52:06;;;;;;;5.32;1.73;;;;;;;;;;6318364;28;20106;-73
2022/09/21 13:55:23;;;;;;;4.57;1.23;;;;;;;;;;6317964;28;20098;-73
2022/09/21 13:58:26;;;;;;;2.58;1.00;;;;;;;;;;6318472;28;20109;-72
2022/09/21 14:01:32;;;;;;;10.40;1.83;;;;;;;;;;6316236;28;20060;-72
2022/09/21 14:04:35;;;;;;;2.17;1.17;;;;;;;;;;6317615;28;20051;-73
2022/09/21 14:07:39;;;;;;;14.65;2.17;;;;;;;;;;6314455;28;20067;-73
2022/09/21 14:10:51;;;;;;;4.15;1.30;;;;;;;;;;6312366;28;21037;-70
2022/09/21 14:14:08;;;;;;;5.88;1.50;;;;;;;;;;6316031;28;20059;-70
2022/09/21 14:17:35;;;;;;;5.13;1.65;;;;;;;;;;6316379;28;20051;-71
2022/09/21 14:20:37;;;;;;;4.90;1.70;;;;;;;;;;6317149;28;20355;-73
2022/09/21 14:23:39;;;;;;;9.70;1.65;;;;;;;;;;6315655;28;20052;-73
2022/09/21 14:26:51;;;;;;;7.57;1.40;;;;;;;;;;6313193;28;20350;-72
2022/09/21 14:29:58;;;;;;;16.40;2.10;;;;;;;;;;6313246;28;20357;-73
2022/09/21 14:33:12;;;;;;;9.82;1.52;;;;;;;;;;6315087;28;20055;-73
2022/09/21 14:36:15;;;;;;;;;;;;;;;;;;6315881;28;20320;-72
2022/09/21 14:39:20;;;;;;;4.97;1.50;;;;;;;;;;6312489;28;19923;-73
2022/09/21 14:42:27;;;;;;;2.58;1.45;;;;;;;;;;6315792;28;20071;-75
2022/09/21 14:45:46;;;;;;;2.80;1.40;;;;;;;;;;6315182;28;20640;-75
2022/09/21 14:48:58;;;;;;;18.17;2.35;;;;;;;;;;6314453;28;20056;-73
2022/09/21 14:52:10;;;;;;;4.93;1.48;;;;;;;;;;6315867;28;20323;-74
2022/09/21 14:55:17;;;;;;;7.00;1.50;;;;;;;;;;6316969;28;20048;-74
2022/09/21 14:58:35;;;;;;;8.10;1.83;;;;;;;;;;6318670;28;20055;-73
2022/09/21 15:01:40;;;;;;;6.47;1.40;;;;;;;;;;6308225;28;20070;-74
2022/09/21 15:04:54;;;;;;;9.27;1.63;;;;;;;;;;6315749;28;20044;-73
2022/09/21 15:11:28;;;;;;;4.30;1.50;;;;;;;;;;6317320;28;20218;-74
2022/09/21 15:14:36;;;;;;;4.88;1.40;;;;;;;;;;6319396;28;20048;-73
2022/09/21 15:17:51;;;;;;;2.55;1.40;;;;;;;;;;6314738;28;20043;-74
2022/09/21 15:21:00;;;;;;;11.45;2.90;;;;;;;;;;6315646;28;20358;-73
2022/09/21 15:24:13;;;;;;;8.98;1.50;;;;;;;;;;6314286;27;20052;-74
2022/09/21 15:27:16;;;;;;;12.38;1.83;;;;;;;;;;6316309;28;20070;-74
2022/09/21 15:30:25;;;;;;;7.85;1.70;;;;;;;;;;6316782;28;20328;-76
2022/09/21 15:33:27;;;;;;;2.65;1.42;;;;;;;;;;6314604;28;20059;-73
2022/09/21 15:36:30;;;;;;;4.70;1.40;;;;;;;;;;6313052;28;20111;-73
2022/09/21 15:39:31;;;;;;;;;;;;;;;;;;6314784;28;20052;-73
2022/09/21 15:42:35;;;;;;;2.00;1.00;;;;;;;;;;6314008;28;19923;-73
2022/09/21 15:45:50;;;;;;;1.95;1.10;;;;;;;;;;6311485;28;20052;-73
2022/09/21 15:48:52;;;;;;;8.63;1.33;;;;;;;;;;6311870;28;20052;-76
2022/09/21 15:51:55;;;;;;;10.98;2.08;;;;;;;;;;6314348;28;20243;-72
2022/09/21 15:54:59;;;;;;;3.97;1.60;;;;;;;;;;6317961;28;20066;-72
2022/09/21 15:58:03;;;;;;;1.95;0.70;;;;;;;;;;6321050;28;20106;-73
2022/09/21 16:01:15;;;;;;;1.60;1.15;;;;;;;;;;6320070;28;20194;-73
2022/09/21 16:04:20;;;;;;;5.93;1.07;;;;;;;;;;6325120;28;20109;-73
2022/09/21 16:07:30;;;;;;;4.43;1.50;;;;;;;;;;6316308;28;20496;-73
2022/09/21 16:10:38;;;;;;;4.32;0.90;;;;;;;;;;6316513;28;20056;-73
2022/09/21 16:17:24;;;;;;;8.73;1.27;;;;;;;;;;6313311;28;20456;-72
2022/09/21 16:20:38;;;;;;;5.00;1.40;;;;;;;;;;6315617;28;20071;-71
2022/09/21 16:23:40;;;;;;;11.10;1.40;;;;;;;;;;6315156;28;20073;-72
2022/09/21 16:26:42;;;;;;;5.30;1.40;;;;;;;;;;6316899;28;20068;-73
2022/09/21 16:29:47;;;;;;;2.83;1.05;;;;;;;;;;6319733;28;20088;-74
2022/09/21 16:32:51;;;;;;;3.72;0.85;;;;;;;;;;6315192;28;20041;-73
2022/09/21 16:35:53;;;;;;;4.97;1.25;;;;;;;;;;6315005;28;20223;-72
2022/09/21 16:38:55;;;;;;;3.60;1.20;;;;;;;;;;6316487;28;20048;-76
2022/09/21 16:42:00;;;;;;;7.13;1.70;;;;;;;;;;6320271;28;20040;-72
2022/09/21 16:45:17;;;;;;;2.22;1.30;;;;;;;;;;6319830;28;20124;-75
2022/09/21 16:48:20;;;;;;;4.95;1.50;;;;;;;;;;6318465;28;20699;-75
2022/09/21 16:51:24;;;;;;;2.95;1.15;;;;;;;;;;6318494;28;20063;-75
2022/09/21 16:54:26;;;;;;;3.08;1.10;;;;;;;;;;6317034;28;20263;-75
2022/09/21 16:57:27;;;;;;;2.58;0.98;;;;;;;;;;6314540;28;20121;-76
2022/09/21 17:00:38;;;;;;;1.60;0.98;;;;;;;;;;6314253;28;20090;-75
2022/09/21 17:03:42;;;;;;;3.33;1.15;;;;;;;;;;6317233;28;20048;-75
2022/09/21 17:06:43;;;;;;;;;;;;;;;;;;6320106;27;20045;-75
2022/09/21 17:09:46;;;;;;;3.67;1.40;;;;;;;;;;6319627;28;19977;-75
2022/09/21 17:12:49;;;;;;;3.35;1.10;;;;;;;;;;6316656;28;20123;-74
2022/09/21 17:15:52;;;;;;;2.22;1.38;;;;;;;;;;6317592;28;20048;-75
2022/09/21 17:18:55;;;;;;;2.13;1.10;;;;;;;;;;6317913;28;20120;-74
2022/09/21 17:21:58;;;;;;;4.40;1.20;;;;;;;;;;6319915;28;20306;-74
2022/09/21 17:25:00;;;;;;;3.88;1.27;;;;;;;;;;6319061;28;20070;-74
2022/09/21 17:28:04;;;;;;;4.30;1.10;;;;;;;;;;6316708;28;20052;-75
2022/09/21 17:31:08;;;;;;;5.82;1.20;;;;;;;;;;6317519;28;20119;-80
2022/09/21 17:34:12;;;;;;;2.00;1.00;;;;;;;;;;6313614;28;20059;-72
2022/09/21 17:37:13;;;;;;;3.58;0.90;;;;;;;;;;6321511;28;20372;-71
2022/09/21 17:40:16;;;;;;;4.78;1.30;;;;;;;;;;6319231;28;20047;-70
2022/09/21 17:43:34;;;;;;;5.70;1.65;;;;;;;;;;6322069;28;20393;-73
2022/09/21 17:46:42;;;;;;;2.75;1.10;;;;;;;;;;6316509;28;20056;-73
2022/09/21 17:49:45;;;;;;;4.30;1.23;;;;;;;;;;6321146;28;20047;-74
2022/09/21 17:56:19;;;;;;;2.55;1.20;;;;;;;;;;6319075;28;20048;-75
2022/09/21 17:59:26;;;;;;;2.85;1.27;;;;;;;;;;6315071;28;20040;-71
2022/09/21 18:02:28;;;;;;;1.83;1.23;;;;;;;;;;6315493;28;20045;-76
2022/09/21 18:05:31;;;;;;;6.88;1.30;;;;;;;;;;6318955;28;20048;-69
2022/09/21 18:08:34;;;;;;;4.72;1.20;;;;;;;;;;6318693;28;20044;-73
2022/09/21 18:11:51;;;;;;;2.92;0.95;;;;;;;;;;6316141;28;20090;-70
2022/09/21 18:14:58;;;;;;;6.00;1.52;;;;;;;;;;6315874;28;20097;-76
2022/09/21 18:18:06;;;;;;;4.38;1.40;;;;;;;;;;6316792;28;20063;-72
2022/09/21 18:21:14;;;;;;;3.28;1.40;;;;;;;;;;6315574;28;20060;-78
2022/09/21 18:24:21;;;;;;;5.82;1.70;;;;;;;;;;6314570;28;20097;-74
2022/09/21 18:27:23;;;;;;;4.47;1.42;;;;;;;;;;6320398;28;20066;-72
2022/09/21 18:30:25;;;;;;;4.72;1.40;;;;;;;;;;6319420;28;20444;-76
2022/09/21 18:33:34;;;;;;;4.78;1.42;;;;;;;;;;6319830;28;20094;-74
2022/09/21 18:36:42;;;;;;;8.10;1.60;;;;;;;;;;6321241;28;20063;-70
2022/09/21 18:39:53;;;;;;;6.80;1.95;;;;;;;;;;6320931;28;20082;-74
2022/09/21 18:42:59;;;;;;;2.45;1.33;;;;;;;;;;6318915;28;20044;-71
2022/09/21 18:46:02;;;;;;;5.00;1.50;;;;;;;;;;6324302;28;20300;-73
2022/09/21 18:49:12;;;;;;;3.95;1.42;;;;;;;;;;6317593;28;20052;-74
2022/09/21 18:52:21;;;;;;;4.45;1.30;;;;;;;;;;6322644;28;20040;-69
2022/09/21 18:55:25;;;;;;;6.30;1.63;;;;;;;;;;6323130;28;20052;-71